sensor_id;sensor_type;location;lat;lon;timestamp;P1;durP1;ratioP1;P2;durP2;ratioP2
28629;SDS011;15817;42.130;24.762;2023-04-03T00:01:02;3.15;;;1.20;;
28629;SDS011;15817;42.130;24.762;2023-04-03T00:03:28;1.70;;;1.30;;
28629;SDS011;15817;42.130;24.762;2023-04-03T00:05:57;2.17;;;1.33;;
28629;SDS011;15817;42.130;24.762;2023-04-03T00:08:53;2.22;;;1.17;;
28629;SDS011;15817;42.130;24.762;2023-04-03T00:11:19;2.03;;;1.05;;
28629;SDS011;15817;42.130;24.762;2023-04-03T00:13:46;5.15;;;1.23;;
28629;SDS011;15817;42.130;24.762;2023-04-03T00:16:12;1.58;;;0.90;;
28629;SDS011;15817;42.130;24.762;2023-04-03T00:18:38;5.15;;;1.70;;
28629;SDS011;15817;42.130;24.762;2023-04-03T00:21:05;1.88;;;1.30;;
28629;SDS011;15817;42.130;24.762;2023-04-03T00:23:31;4.78;;;1.02;;
28629;SDS011;15817;42.130;24.762;2023-04-03T00:25:57;1.35;;;0.90;;
28629;SDS011;15817;42.130;24.762;2023-04-03T00:28:23;3.90;;;1.38;;
28629;SDS011;15817;42.130;24.762;2023-04-03T00:31:17;2.63;;;1.40;;
28629;SDS011;15817;42.130;24.762;2023-04-03T00:33:52;1.33;;;1.10;;
28629;SDS011;15817;42.130;24.762;2023-04-03T00:36:18;4.22;;;1.30;;
28629;SDS011;15817;42.130;24.762;2023-04-03T00:38:53;1.65;;;1.20;;
28629;SDS011;15817;42.130;24.762;2023-04-03T00:41:20;2.70;;;1.30;;
28629;SDS011;15817;42.130;24.762;2023-04-03T00:43:57;1.73;;;0.88;;
28629;SDS011;15817;42.130;24.762;2023-04-03T00:46:26;3.22;;;1.20;;
28629;SDS011;15817;42.130;24.762;2023-04-03T00:48:55;1.70;;;1.08;;
28629;SDS011;15817;42.130;24.762;2023-04-03T00:51:23;1.88;;;1.23;;
28629;SDS011;15817;42.130;24.762;2023-04-03T00:53:50;2.15;;;1.38;;
28629;SDS011;15817;42.130;24.762;2023-04-03T00:56:21;1.20;;;1.02;;
28629;SDS011;15817;42.130;24.762;2023-04-03T00:58:53;4.00;;;1.35;;
28629;SDS011;15817;42.130;24.762;2023-04-03T01:01:24;2.20;;;1.20;;
28629;SDS011;15817;42.130;24.762;2023-04-03T01:03:51;1.83;;;1.10;;
28629;SDS011;15817;42.130;24.762;2023-04-03T01:06:19;1.63;;;1.17;;
28629;SDS011;15817;42.130;24.762;2023-04-03T01:08:50;4.97;;;1.10;;
28629;SDS011;15817;42.130;24.762;2023-04-03T01:11:17;4.10;;;1.10;;
28629;SDS011;15817;42.130;24.762;2023-04-03T01:13:43;3.88;;;1.35;;
28629;SDS011;15817;42.130;24.762;2023-04-03T01:16:12;2.65;;;1.20;;
28629;SDS011;15817;42.130;24.762;2023-04-03T01:18:39;1.33;;;1.23;;
28629;SDS011;15817;42.130;24.762;2023-04-03T01:21:12;5.28;;;2.17;;
28629;SDS011;15817;42.130;24.762;2023-04-03T01:26:25;6.00;;;1.92;;
28629;SDS011;15817;42.130;24.762;2023-04-03T01:28:53;5.82;;;1.70;;
28629;SDS011;15817;42.130;24.762;2023-04-03T01:31:22;2.58;;;1.67;;
28629;SDS011;15817;42.130;24.762;2023-04-03T01:33:55;2.17;;;1.48;;
28629;SDS011;15817;42.130;24.762;2023-04-03T01:36:26;3.80;;;1.38;;
28629;SDS011;15817;42.130;24.762;2023-04-03T01:38:58;3.88;;;1.23;;
28629;SDS011;15817;42.130;24.762;2023-04-03T01:41:28;2.70;;;1.45;;
28629;SDS011;15817;42.130;24.762;2023-04-03T01:44:02;3.75;;;1.52;;
28629;SDS011;15817;42.130;24.762;2023-04-03T01:46:29;3.85;;;1.55;;
28629;SDS011;15817;42.130;24.762;2023-04-03T01:48:55;2.65;;;1.70;;
28629;SDS011;15817;42.130;24.762;2023-04-03T01:51:21;2.85;;;1.40;;
28629;SDS011;15817;42.130;24.762;2023-04-03T01:53:47;4.25;;;1.38;;
28629;SDS011;15817;42.130;24.762;2023-04-03T01:56:13;2.97;;;1.70;;
28629;SDS011;15817;42.130;24.762;2023-04-03T01:58:39;5.00;;;1.50;;
28629;SDS011;15817;42.130;24.762;2023-04-03T02:01:07;2.78;;;1.50;;
28629;SDS011;15817;42.130;24.762;2023-04-03T02:03:33;5.30;;;1.38;;
28629;SDS011;15817;42.130;24.762;2023-04-03T02:05:59;1.75;;;1.30;;
28629;SDS011;15817;42.130;24.762;2023-04-03T02:08:25;3.13;;;1.30;;
28629;SDS011;15817;42.130;24.762;2023-04-03T02:10:51;5.93;;;1.50;;
28629;SDS011;15817;42.130;24.762;2023-04-03T02:13:17;1.85;;;1.20;;
28629;SDS011;15817;42.130;24.762;2023-04-03T02:15:44;3.38;;;1.85;;
28629;SDS011;15817;42.130;24.762;2023-04-03T02:18:14;1.42;;;1.00;;
28629;SDS011;15817;42.130;24.762;2023-04-03T02:20:40;4.03;;;1.70;;
28629;SDS011;15817;42.130;24.762;2023-04-03T02:23:06;6.00;;;1.60;;
28629;SDS011;15817;42.130;24.762;2023-04-03T02:25:32;5.10;;;1.90;;
28629;SDS011;15817;42.130;24.762;2023-04-03T02:27:58;3.67;;;2.17;;
28629;SDS011;15817;42.130;24.762;2023-04-03T02:30:24;7.40;;;2.00;;
28629;SDS011;15817;42.130;24.762;2023-04-03T02:32:50;2.85;;;1.98;;
28629;SDS011;15817;42.130;24.762;2023-04-03T02:35:16;4.57;;;1.70;;
28629;SDS011;15817;42.130;24.762;2023-04-03T02:37:42;3.70;;;2.00;;
28629;SDS011;15817;42.130;24.762;2023-04-03T02:40:08;3.70;;;2.33;;
28629;SDS011;15817;42.130;24.762;2023-04-03T02:42:34;4.57;;;2.45;;
28629;SDS011;15817;42.130;24.762;2023-04-03T02:45:02;4.93;;;2.00;;
28629;SDS011;15817;42.130;24.762;2023-04-03T02:47:28;7.30;;;2.17;;
28629;SDS011;15817;42.130;24.762;2023-04-03T02:49:59;5.93;;;2.10;;
28629;SDS011;15817;42.130;24.762;2023-04-03T02:52:25;3.45;;;2.03;;
28629;SDS011;15817;42.130;24.762;2023-04-03T02:54:54;5.25;;;2.30;;
28629;SDS011;15817;42.130;24.762;2023-04-03T02:57:20;3.25;;;2.10;;
28629;SDS011;15817;42.130;24.762;2023-04-03T02:59:46;3.22;;;1.75;;
28629;SDS011;15817;42.130;24.762;2023-04-03T03:02:12;4.65;;;2.53;;
28629;SDS011;15817;42.130;24.762;2023-04-03T03:04:38;2.60;;;2.08;;
28629;SDS011;15817;42.130;24.762;2023-04-03T03:07:04;6.95;;;2.53;;
28629;SDS011;15817;42.130;24.762;2023-04-03T03:09:30;8.55;;;2.88;;
28629;SDS011;15817;42.130;24.762;2023-04-03T03:11:57;7.63;;;2.45;;
28629;SDS011;15817;42.130;24.762;2023-04-03T03:14:23;4.60;;;2.28;;
28629;SDS011;15817;42.130;24.762;2023-04-03T03:16:51;4.50;;;2.20;;
28629;SDS011;15817;42.130;24.762;2023-04-03T03:19:20;5.38;;;2.65;;
28629;SDS011;15817;42.130;24.762;2023-04-03T03:21:46;9.65;;;2.60;;
28629;SDS011;15817;42.130;24.762;2023-04-03T03:24:22;6.40;;;2.60;;
28629;SDS011;15817;42.130;24.762;2023-04-03T03:26:50;8.55;;;3.35;;
28629;SDS011;15817;42.130;24.762;2023-04-03T03:29:18;8.57;;;3.25;;
28629;SDS011;15817;42.130;24.762;2023-04-03T03:31:45;4.93;;;2.78;;
28629;SDS011;15817;42.130;24.762;2023-04-03T03:34:10;6.60;;;2.97;;
28629;SDS011;15817;42.130;24.762;2023-04-03T03:36:39;14.18;;;3.67;;
28629;SDS011;15817;42.130;24.762;2023-04-03T03:39:11;9.05;;;3.45;;
28629;SDS011;15817;42.130;24.762;2023-04-03T03:41:38;5.65;;;2.67;;
28629;SDS011;15817;42.130;24.762;2023-04-03T03:44:06;6.45;;;3.38;;
28629;SDS011;15817;42.130;24.762;2023-04-03T03:46:37;8.52;;;3.50;;
28629;SDS011;15817;42.130;24.762;2023-04-03T03:49:04;8.15;;;3.78;;
28629;SDS011;15817;42.130;24.762;2023-04-03T03:51:30;11.13;;;3.78;;
28629;SDS011;15817;42.130;24.762;2023-04-03T03:53:56;10.60;;;5.72;;
28629;SDS011;15817;42.130;24.762;2023-04-03T03:56:22;11.23;;;5.32;;
28629;SDS011;15817;42.130;24.762;2023-04-03T03:58:49;8.15;;;5.05;;
28629;SDS011;15817;42.130;24.762;2023-04-03T04:01:16;8.73;;;5.13;;
28629;SDS011;15817;42.130;24.762;2023-04-03T04:03:49;11.95;;;5.30;;
28629;SDS011;15817;42.130;24.762;2023-04-03T04:06:23;16.25;;;5.95;;
28629;SDS011;15817;42.130;24.762;2023-04-03T04:08:51;19.58;;;6.00;;
28629;SDS011;15817;42.130;24.762;2023-04-03T04:11:20;15.80;;;5.30;;
28629;SDS011;15817;42.130;24.762;2023-04-03T04:13:54;18.50;;;5.63;;
28629;SDS011;15817;42.130;24.762;2023-04-03T04:16:25;19.05;;;5.22;;
28629;SDS011;15817;42.130;24.762;2023-04-03T04:18:54;20.02;;;5.72;;
28629;SDS011;15817;42.130;24.762;2023-04-03T04:21:23;20.55;;;5.93;;
28629;SDS011;15817;42.130;24.762;2023-04-03T04:23:52;17.88;;;4.97;;
28629;SDS011;15817;42.130;24.762;2023-04-03T04:26:21;12.10;;;5.20;;
28629;SDS011;15817;42.130;24.762;2023-04-03T04:28:47;11.63;;;4.43;;
28629;SDS011;15817;42.130;24.762;2023-04-03T04:31:13;15.50;;;5.03;;
28629;SDS011;15817;42.130;24.762;2023-04-03T04:33:40;15.68;;;4.22;;
28629;SDS011;15817;42.130;24.762;2023-04-03T04:36:08;12.68;;;4.68;;
28629;SDS011;15817;42.130;24.762;2023-04-03T04:38:49;9.57;;;4.00;;
28629;SDS011;15817;42.130;24.762;2023-04-03T04:41:23;7.20;;;4.13;;
28629;SDS011;15817;42.130;24.762;2023-04-03T04:44:03;11.15;;;3.97;;
28629;SDS011;15817;42.130;24.762;2023-04-03T04:46:29;9.20;;;4.57;;
28629;SDS011;15817;42.130;24.762;2023-04-03T04:49:01;7.90;;;4.30;;
28629;SDS011;15817;42.130;24.762;2023-04-03T04:51:33;14.75;;;4.45;;
28629;SDS011;15817;42.130;24.762;2023-04-03T04:54:01;11.73;;;4.43;;
28629;SDS011;15817;42.130;24.762;2023-04-03T04:56:45;12.35;;;4.38;;
28629;SDS011;15817;42.130;24.762;2023-04-03T04:59:12;12.82;;;3.97;;
28629;SDS011;15817;42.130;24.762;2023-04-03T05:01:38;9.43;;;3.92;;
28629;SDS011;15817;42.130;24.762;2023-04-03T05:04:09;9.55;;;3.92;;
28629;SDS011;15817;42.130;24.762;2023-04-03T05:06:38;10.20;;;4.50;;
28629;SDS011;15817;42.130;24.762;2023-04-03T05:09:15;7.60;;;3.72;;
28629;SDS011;15817;42.130;24.762;2023-04-03T05:11:51;10.63;;;3.97;;
28629;SDS011;15817;42.130;24.762;2023-04-03T05:14:25;10.65;;;4.30;;
28629;SDS011;15817;42.130;24.762;2023-04-03T05:16:56;14.55;;;4.20;;
28629;SDS011;15817;42.130;24.762;2023-04-03T05:19:28;12.73;;;5.18;;
28629;SDS011;15817;42.130;24.762;2023-04-03T05:21:57;9.27;;;5.53;;
28629;SDS011;15817;42.130;24.762;2023-04-03T05:24:27;18.60;;;6.05;;
28629;SDS011;15817;42.130;24.762;2023-04-03T05:26:53;15.02;;;6.38;;
28629;SDS011;15817;42.130;24.762;2023-04-03T05:29:25;11.98;;;6.22;;
28629;SDS011;15817;42.130;24.762;2023-04-03T05:32:01;18.83;;;6.70;;
28629;SDS011;15817;42.130;24.762;2023-04-03T05:35:13;14.60;;;5.95;;
28629;SDS011;15817;42.130;24.762;2023-04-03T05:37:40;15.88;;;6.25;;
28629;SDS011;15817;42.130;24.762;2023-04-03T05:40:07;12.18;;;5.45;;
28629;SDS011;15817;42.130;24.762;2023-04-03T05:42:37;12.77;;;4.57;;
28629;SDS011;15817;42.130;24.762;2023-04-03T05:45:06;15.20;;;5.25;;
28629;SDS011;15817;42.130;24.762;2023-04-03T05:47:32;16.40;;;5.55;;
28629;SDS011;15817;42.130;24.762;2023-04-03T05:49:58;16.23;;;6.03;;
28629;SDS011;15817;42.130;24.762;2023-04-03T05:52:28;12.00;;;5.85;;
28629;SDS011;15817;42.130;24.762;2023-04-03T05:54:56;18.52;;;5.78;;
28629;SDS011;15817;42.130;24.762;2023-04-03T05:57:25;15.82;;;5.43;;
28629;SDS011;15817;42.130;24.762;2023-04-03T05:59:52;13.70;;;5.38;;
28629;SDS011;15817;42.130;24.762;2023-04-03T06:02:19;13.55;;;5.90;;
28629;SDS011;15817;42.130;24.762;2023-04-03T06:04:59;11.40;;;5.05;;
28629;SDS011;15817;42.130;24.762;2023-04-03T06:07:26;24.60;;;5.90;;
28629;SDS011;15817;42.130;24.762;2023-04-03T06:09:56;13.82;;;6.13;;
28629;SDS011;15817;42.130;24.762;2023-04-03T06:12:31;18.33;;;6.95;;
28629;SDS011;15817;42.130;24.762;2023-04-03T06:14:56;14.32;;;6.95;;
28629;SDS011;15817;42.130;24.762;2023-04-03T06:17:23;19.70;;;6.45;;
28629;SDS011;15817;42.130;24.762;2023-04-03T06:19:49;18.38;;;6.50;;
28629;SDS011;15817;42.130;24.762;2023-04-03T06:22:17;14.77;;;5.75;;
28629;SDS011;15817;42.130;24.762;2023-04-03T06:24:48;10.48;;;6.30;;
28629;SDS011;15817;42.130;24.762;2023-04-03T06:27:14;12.07;;;6.03;;
28629;SDS011;15817;42.130;24.762;2023-04-03T06:29:40;16.02;;;6.35;;
28629;SDS011;15817;42.130;24.762;2023-04-03T06:32:27;11.60;;;6.07;;
28629;SDS011;15817;42.130;24.762;2023-04-03T06:35:01;14.77;;;6.93;;
28629;SDS011;15817;42.130;24.762;2023-04-03T06:37:30;19.98;;;6.82;;
28629;SDS011;15817;42.130;24.762;2023-04-03T06:39:59;17.48;;;8.02;;
28629;SDS011;15817;42.130;24.762;2023-04-03T06:42:25;31.17;;;8.27;;
28629;SDS011;15817;42.130;24.762;2023-04-03T06:45:08;18.42;;;8.13;;
28629;SDS011;15817;42.130;24.762;2023-04-03T06:47:44;20.80;;;7.47;;
28629;SDS011;15817;42.130;24.762;2023-04-03T06:50:13;9.93;;;3.80;;
28629;SDS011;15817;42.130;24.762;2023-04-03T06:52:58;4.32;;;2.92;;
28629;SDS011;15817;42.130;24.762;2023-04-03T06:55:32;8.18;;;3.72;;
28629;SDS011;15817;42.130;24.762;2023-04-03T06:57:58;12.85;;;3.47;;
28629;SDS011;15817;42.130;24.762;2023-04-03T07:00:35;11.50;;;3.80;;
28629;SDS011;15817;42.130;24.762;2023-04-03T07:03:09;12.45;;;3.92;;
28629;SDS011;15817;42.130;24.762;2023-04-03T07:05:36;10.52;;;3.53;;
28629;SDS011;15817;42.130;24.762;2023-04-03T07:08:07;7.57;;;3.40;;
28629;SDS011;15817;42.130;24.762;2023-04-03T07:10:39;6.35;;;3.17;;
28629;SDS011;15817;42.130;24.762;2023-04-03T07:17:00;15.27;;;4.15;;
28629;SDS011;15817;42.130;24.762;2023-04-03T07:24:00;7.22;;;3.40;;
28629;SDS011;15817;42.130;24.762;2023-04-03T07:30:24;12.15;;;3.40;;
28629;SDS011;15817;42.130;24.762;2023-04-03T07:32:57;7.18;;;3.05;;
28629;SDS011;15817;42.130;24.762;2023-04-03T07:35:47;9.48;;;2.83;;
28629;SDS011;15817;42.130;24.762;2023-04-03T07:46:59;4.38;;;2.60;;
28629;SDS011;15817;42.130;24.762;2023-04-03T08:17:06;10.02;;;2.90;;
28629;SDS011;15817;42.130;24.762;2023-04-03T08:24:50;10.75;;;4.82;;
28629;SDS011;15817;42.130;24.762;2023-04-03T08:28:33;7.97;;;4.38;;
28629;SDS011;15817;42.130;24.762;2023-04-03T08:31:16;12.82;;;4.70;;
28629;SDS011;15817;42.130;24.762;2023-04-03T08:34:24;12.27;;;4.82;;
28629;SDS011;15817;42.130;24.762;2023-04-03T08:36:50;12.70;;;4.30;;
28629;SDS011;15817;42.130;24.762;2023-04-03T08:39:22;10.63;;;3.72;;
28629;SDS011;15817;42.130;24.762;2023-04-03T08:42:25;6.45;;;3.40;;
28629;SDS011;15817;42.130;24.762;2023-04-03T09:10:46;7.30;;;3.28;;
28629;SDS011;15817;42.130;24.762;2023-04-03T09:14:50;9.13;;;3.00;;
28629;SDS011;15817;42.130;24.762;2023-04-03T09:50:58;7.57;;;3.03;;
28629;SDS011;15817;42.130;24.762;2023-04-03T09:53:56;5.47;;;2.88;;
28629;SDS011;15817;42.130;24.762;2023-04-03T10:08:07;7.47;;;2.10;;
28629;SDS011;15817;42.130;24.762;2023-04-03T10:19:44;3.10;;;2.33;;
28629;SDS011;15817;42.130;24.762;2023-04-03T10:33:20;5.75;;;2.75;;
28629;SDS011;15817;42.130;24.762;2023-04-03T10:36:48;4.97;;;2.75;;
28629;SDS011;15817;42.130;24.762;2023-04-03T10:46:13;4.68;;;2.53;;
28629;SDS011;15817;42.130;24.762;2023-04-03T10:51:56;4.18;;;2.40;;
28629;SDS011;15817;42.130;24.762;2023-04-03T10:54:54;6.63;;;2.75;;
28629;SDS011;15817;42.130;24.762;2023-04-03T10:57:28;3.65;;;2.70;;
28629;SDS011;15817;42.130;24.762;2023-04-03T11:00:14;6.20;;;3.15;;
28629;SDS011;15817;42.130;24.762;2023-04-03T11:02:52;4.43;;;2.65;;
28629;SDS011;15817;42.130;24.762;2023-04-03T11:05:26;4.97;;;2.88;;
28629;SDS011;15817;42.130;24.762;2023-04-03T11:11:17;5.15;;;2.22;;
28629;SDS011;15817;42.130;24.762;2023-04-03T11:13:52;3.15;;;1.95;;
28629;SDS011;15817;42.130;24.762;2023-04-03T11:16:45;2.88;;;1.85;;
28629;SDS011;15817;42.130;24.762;2023-04-03T11:19:29;3.72;;;1.98;;
28629;SDS011;15817;42.130;24.762;2023-04-03T11:22:21;3.55;;;2.13;;
28629;SDS011;15817;42.130;24.762;2023-04-03T11:24:58;2.85;;;1.90;;
28629;SDS011;15817;42.130;24.762;2023-04-03T11:27:25;4.95;;;2.13;;
28629;SDS011;15817;42.130;24.762;2023-04-03T11:29:57;5.05;;;2.28;;
28629;SDS011;15817;42.130;24.762;2023-04-03T11:35:19;2.90;;;2.30;;
28629;SDS011;15817;42.130;24.762;2023-04-03T11:38:10;3.22;;;2.50;;
28629;SDS011;15817;42.130;24.762;2023-04-03T11:41:25;2.70;;;2.22;;
28629;SDS011;15817;42.130;24.762;2023-04-03T11:44:35;4.57;;;3.00;;
28629;SDS011;15817;42.130;24.762;2023-04-03T11:47:05;4.13;;;2.67;;
28629;SDS011;15817;42.130;24.762;2023-04-03T12:00:46;3.80;;;2.30;;
28629;SDS011;15817;42.130;24.762;2023-04-03T12:03:30;7.43;;;3.40;;
28629;SDS011;15817;42.130;24.762;2023-04-03T12:16:33;3.28;;;2.70;;
28629;SDS011;15817;42.130;24.762;2023-04-03T12:24:29;3.55;;;3.10;;
28629;SDS011;15817;42.130;24.762;2023-04-03T12:37:56;4.65;;;3.33;;
28629;SDS011;15817;42.130;24.762;2023-04-03T12:51:34;8.35;;;5.22;;
28629;SDS011;15817;42.130;24.762;2023-04-03T12:54:04;8.77;;;4.15;;
28629;SDS011;15817;42.130;24.762;2023-04-03T12:56:42;12.88;;;4.60;;
28629;SDS011;15817;42.130;24.762;2023-04-03T12:59:25;10.55;;;4.22;;
28629;SDS011;15817;42.130;24.762;2023-04-03T13:01:56;8.00;;;4.45;;
28629;SDS011;15817;42.130;24.762;2023-04-03T13:04:23;8.05;;;4.90;;
28629;SDS011;15817;42.130;24.762;2023-04-03T13:06:50;11.48;;;5.32;;
28629;SDS011;15817;42.130;24.762;2023-04-03T13:09:21;5.32;;;4.13;;
28629;SDS011;15817;42.130;24.762;2023-04-03T13:11:51;6.53;;;4.97;;
28629;SDS011;15817;42.130;24.762;2023-04-03T13:14:24;8.80;;;5.80;;
28629;SDS011;15817;42.130;24.762;2023-04-03T13:17:03;8.73;;;5.05;;
28629;SDS011;15817;42.130;24.762;2023-04-03T13:19:40;12.13;;;5.28;;
28629;SDS011;15817;42.130;24.762;2023-04-03T13:22:30;7.63;;;4.82;;
28629;SDS011;15817;42.130;24.762;2023-04-03T13:24:57;10.10;;;5.43;;
28629;SDS011;15817;42.130;24.762;2023-04-03T13:27:24;14.05;;;7.18;;
28629;SDS011;15817;42.130;24.762;2023-04-03T13:29:57;9.23;;;7.15;;
28629;SDS011;15817;42.130;24.762;2023-04-03T13:33:05;11.43;;;7.15;;
28629;SDS011;15817;42.130;24.762;2023-04-03T13:35:47;11.35;;;6.43;;
28629;SDS011;15817;42.130;24.762;2023-04-03T13:38:33;7.75;;;5.90;;
28629;SDS011;15817;42.130;24.762;2023-04-03T13:41:03;13.77;;;6.90;;
28629;SDS011;15817;42.130;24.762;2023-04-03T13:43:47;12.00;;;7.05;;
28629;SDS011;15817;42.130;24.762;2023-04-03T13:48:39;12.85;;;7.43;;
28629;SDS011;15817;42.130;24.762;2023-04-03T13:53:45;14.30;;;8.73;;
28629;SDS011;15817;42.130;24.762;2023-04-03T13:56:17;11.52;;;7.63;;
28629;SDS011;15817;42.130;24.762;2023-04-03T13:58:53;13.40;;;7.68;;
28629;SDS011;15817;42.130;24.762;2023-04-03T14:04:24;12.65;;;9.43;;
28629;SDS011;15817;42.130;24.762;2023-04-03T14:06:52;16.15;;;10.27;;
28629;SDS011;15817;42.130;24.762;2023-04-03T14:09:19;15.55;;;10.18;;
28629;SDS011;15817;42.130;24.762;2023-04-03T14:11:47;14.48;;;9.98;;
28629;SDS011;15817;42.130;24.762;2023-04-03T14:14:29;13.05;;;10.05;;
28629;SDS011;15817;42.130;24.762;2023-04-03T14:16:59;16.98;;;10.93;;
28629;SDS011;15817;42.130;24.762;2023-04-03T14:19:29;15.50;;;10.05;;
28629;SDS011;15817;42.130;24.762;2023-04-03T14:21:58;18.52;;;11.70;;
28629;SDS011;15817;42.130;24.762;2023-04-03T14:24:25;18.35;;;11.05;;
28629;SDS011;15817;42.130;24.762;2023-04-03T14:26:53;14.40;;;11.05;;
28629;SDS011;15817;42.130;24.762;2023-04-03T14:29:20;16.60;;;10.98;;
28629;SDS011;15817;42.130;24.762;2023-04-03T14:32:39;11.70;;;8.70;;
28629;SDS011;15817;42.130;24.762;2023-04-03T14:35:05;11.07;;;8.55;;
28629;SDS011;15817;42.130;24.762;2023-04-03T14:37:32;12.27;;;8.68;;
28629;SDS011;15817;42.130;24.762;2023-04-03T14:40:04;16.65;;;9.80;;
28629;SDS011;15817;42.130;24.762;2023-04-03T14:42:56;10.25;;;8.10;;
28629;SDS011;15817;42.130;24.762;2023-04-03T14:45:23;11.57;;;8.25;;
28629;SDS011;15817;42.130;24.762;2023-04-03T14:47:57;11.45;;;7.72;;
28629;SDS011;15817;42.130;24.762;2023-04-03T14:50:30;13.73;;;7.70;;
28629;SDS011;15817;42.130;24.762;2023-04-03T14:52:57;14.55;;;7.78;;
28629;SDS011;15817;42.130;24.762;2023-04-03T14:55:24;27.58;;;12.10;;
28629;SDS011;15817;42.130;24.762;2023-04-03T14:57:50;17.65;;;10.65;;
28629;SDS011;15817;42.130;24.762;2023-04-03T15:00:18;14.30;;;10.60;;
28629;SDS011;15817;42.130;24.762;2023-04-03T15:02:50;15.73;;;9.65;;
28629;SDS011;15817;42.130;24.762;2023-04-03T15:05:49;10.30;;;7.47;;
28629;SDS011;15817;42.130;24.762;2023-04-03T15:08:17;16.65;;;8.75;;
28629;SDS011;15817;42.130;24.762;2023-04-03T15:10:50;16.33;;;8.25;;
28629;SDS011;15817;42.130;24.762;2023-04-03T15:13:22;13.07;;;9.48;;
28629;SDS011;15817;42.130;24.762;2023-04-03T15:15:58;11.52;;;9.23;;
28629;SDS011;15817;42.130;24.762;2023-04-03T15:18:50;15.60;;;9.85;;
28629;SDS011;15817;42.130;24.762;2023-04-03T15:21:27;16.15;;;10.13;;
28629;SDS011;15817;42.130;24.762;2023-04-03T15:23:55;16.52;;;10.32;;
28629;SDS011;15817;42.130;24.762;2023-04-03T15:26:42;14.52;;;9.15;;
28629;SDS011;15817;42.130;24.762;2023-04-03T15:29:11;14.30;;;9.13;;
28629;SDS011;15817;42.130;24.762;2023-04-03T15:31:37;15.48;;;8.43;;
28629;SDS011;15817;42.130;24.762;2023-04-03T15:37:53;14.73;;;9.07;;
28629;SDS011;15817;42.130;24.762;2023-04-03T15:43:22;11.70;;;7.95;;
28629;SDS011;15817;42.130;24.762;2023-04-03T15:49:21;8.85;;;7.10;;
28629;SDS011;15817;42.130;24.762;2023-04-03T15:51:50;12.82;;;8.05;;
28629;SDS011;15817;42.130;24.762;2023-04-03T15:54:18;12.35;;;7.65;;
28629;SDS011;15817;42.130;24.762;2023-04-03T15:56:49;8.93;;;4.95;;
28629;SDS011;15817;42.130;24.762;2023-04-03T16:02:09;8.82;;;3.63;;
28629;SDS011;15817;42.130;24.762;2023-04-03T16:04:38;11.13;;;4.43;;
28629;SDS011;15817;42.130;24.762;2023-04-03T16:07:04;8.80;;;4.47;;
28629;SDS011;15817;42.130;24.762;2023-04-03T16:10:24;13.60;;;5.05;;
28629;SDS011;15817;42.130;24.762;2023-04-03T16:13:10;11.07;;;4.82;;
28629;SDS011;15817;42.130;24.762;2023-04-03T16:16:42;10.70;;;5.63;;
28629;SDS011;15817;42.130;24.762;2023-04-03T16:19:08;11.95;;;5.70;;
28629;SDS011;15817;42.130;24.762;2023-04-03T16:21:45;16.92;;;5.95;;
28629;SDS011;15817;42.130;24.762;2023-04-03T16:24:12;11.23;;;5.38;;
28629;SDS011;15817;42.130;24.762;2023-04-03T16:26:43;8.25;;;5.05;;
28629;SDS011;15817;42.130;24.762;2023-04-03T16:31:49;16.38;;;6.03;;
28629;SDS011;15817;42.130;24.762;2023-04-03T16:34:29;14.02;;;5.88;;
28629;SDS011;15817;42.130;24.762;2023-04-03T16:37:23;10.45;;;6.47;;
28629;SDS011;15817;42.130;24.762;2023-04-03T16:43:07;11.00;;;6.35;;
28629;SDS011;15817;42.130;24.762;2023-04-03T16:45:33;11.23;;;6.75;;
28629;SDS011;15817;42.130;24.762;2023-04-03T16:48:11;11.23;;;7.05;;
28629;SDS011;15817;42.130;24.762;2023-04-03T16:51:24;12.25;;;7.40;;
28629;SDS011;15817;42.130;24.762;2023-04-03T16:53:50;15.35;;;6.70;;
28629;SDS011;15817;42.130;24.762;2023-04-03T16:56:15;10.13;;;6.10;;
28629;SDS011;15817;42.130;24.762;2023-04-03T16:58:41;11.93;;;5.82;;
28629;SDS011;15817;42.130;24.762;2023-04-03T17:01:14;10.75;;;5.78;;
28629;SDS011;15817;42.130;24.762;2023-04-03T17:03:43;11.30;;;6.18;;
28629;SDS011;15817;42.130;24.762;2023-04-03T17:06:15;12.20;;;7.03;;
28629;SDS011;15817;42.130;24.762;2023-04-03T17:08:47;10.15;;;7.40;;
28629;SDS011;15817;42.130;24.762;2023-04-03T17:11:25;15.65;;;10.93;;
28629;SDS011;15817;42.130;24.762;2023-04-03T17:14:08;15.13;;;8.27;;
28629;SDS011;15817;42.130;24.762;2023-04-03T17:19:35;10.60;;;6.70;;
28629;SDS011;15817;42.130;24.762;2023-04-03T17:22:08;9.05;;;6.28;;
28629;SDS011;15817;42.130;24.762;2023-04-03T17:24:46;8.95;;;6.20;;
28629;SDS011;15817;42.130;24.762;2023-04-03T17:27:57;8.48;;;5.47;;
28629;SDS011;15817;42.130;24.762;2023-04-03T17:30:23;7.78;;;5.32;;
28629;SDS011;15817;42.130;24.762;2023-04-03T17:32:51;9.93;;;6.43;;
28629;SDS011;15817;42.130;24.762;2023-04-03T17:35:17;9.60;;;5.78;;
28629;SDS011;15817;42.130;24.762;2023-04-03T17:37:43;9.85;;;5.80;;
28629;SDS011;15817;42.130;24.762;2023-04-03T17:40:20;6.15;;;4.70;;
28629;SDS011;15817;42.130;24.762;2023-04-03T17:46:02;6.25;;;4.15;;
28629;SDS011;15817;42.130;24.762;2023-04-03T17:49:01;7.30;;;4.13;;
28629;SDS011;15817;42.130;24.762;2023-04-03T17:51:38;6.88;;;4.35;;
28629;SDS011;15817;42.130;24.762;2023-04-03T17:54:06;6.70;;;3.70;;
28629;SDS011;15817;42.130;24.762;2023-04-03T17:56:58;6.65;;;3.60;;
28629;SDS011;15817;42.130;24.762;2023-04-03T17:59:57;5.65;;;3.80;;
28629;SDS011;15817;42.130;24.762;2023-04-03T18:02:57;5.22;;;3.88;;
28629;SDS011;15817;42.130;24.762;2023-04-03T18:05:27;6.40;;;4.10;;
28629;SDS011;15817;42.130;24.762;2023-04-03T18:07:53;5.72;;;3.90;;
28629;SDS011;15817;42.130;24.762;2023-04-03T18:10:20;6.47;;;3.92;;
28629;SDS011;15817;42.130;24.762;2023-04-03T18:12:49;6.03;;;4.00;;
28629;SDS011;15817;42.130;24.762;2023-04-03T18:15:22;6.03;;;4.15;;
28629;SDS011;15817;42.130;24.762;2023-04-03T18:17:58;5.25;;;4.50;;
28629;SDS011;15817;42.130;24.762;2023-04-03T18:21:55;6.38;;;5.30;;
28629;SDS011;15817;42.130;24.762;2023-04-03T18:24:18;5.60;;;4.80;;
28629;SDS011;15817;42.130;24.762;2023-04-03T18:27:09;8.38;;;5.00;;
28629;SDS011;15817;42.130;24.762;2023-04-03T18:29:41;5.45;;;4.85;;
28629;SDS011;15817;42.130;24.762;2023-04-03T18:32:16;6.28;;;5.18;;
28629;SDS011;15817;42.130;24.762;2023-04-03T18:34:47;7.43;;;5.53;;
28629;SDS011;15817;42.130;24.762;2023-04-03T18:37:13;7.20;;;5.63;;
28629;SDS011;15817;42.130;24.762;2023-04-03T18:39:40;5.88;;;5.20;;
28629;SDS011;15817;42.130;24.762;2023-04-03T18:42:16;5.78;;;5.00;;
28629;SDS011;15817;42.130;24.762;2023-04-03T18:44:44;8.35;;;5.65;;
28629;SDS011;15817;42.130;24.762;2023-04-03T18:47:17;8.38;;;5.53;;
28629;SDS011;15817;42.130;24.762;2023-04-03T18:49:43;8.13;;;5.85;;
28629;SDS011;15817;42.130;24.762;2023-04-03T18:52:11;13.07;;;6.90;;
28629;SDS011;15817;42.130;24.762;2023-04-03T18:54:37;9.75;;;5.70;;
28629;SDS011;15817;42.130;24.762;2023-04-03T18:57:07;8.57;;;5.68;;
28629;SDS011;15817;42.130;24.762;2023-04-03T18:59:33;8.57;;;6.35;;
28629;SDS011;15817;42.130;24.762;2023-04-03T19:01:59;6.85;;;6.00;;
28629;SDS011;15817;42.130;24.762;2023-04-03T19:04:42;9.13;;;5.93;;
28629;SDS011;15817;42.130;24.762;2023-04-03T19:07:08;6.70;;;5.80;;
28629;SDS011;15817;42.130;24.762;2023-04-03T19:09:39;9.10;;;6.47;;
28629;SDS011;15817;42.130;24.762;2023-04-03T19:12:08;9.00;;;6.03;;